CTN552 LDRI-LDOS
Flight info
| Callsign | CTN552 |
|---|---|
| Flight time | 1h 11m |
| Altitude | 19000 |
| Route | RUGOG M986 ZAG P735 LAKIK |
| Aircraft | A320/M-SDE3FGHIRWY/LB1 |
Departure
| Time | 2026-05-07 00:14 |
|---|---|
| Airport | Rijeka Airport (LDRI) |
Arrival
| Time | 2026-05-07 01:25 |
|---|---|
| Airport | Osijek Airport (LDOS) |
| Time | Latitude | Longitude | Altitude | Speed | Heading |
|---|---|---|---|---|---|
| 2026-05-07 00:13 | 45.06896 | 14.66064 | 17649 ft | 296 kts | 330° |
| 2026-05-07 00:14 | 45.08803 | 14.64926 | 18254 ft | 300 kts | 330° |
| 2026-05-07 00:14 | 45.10737 | 14.63763 | 18769 ft | 304 kts | 330° |
| 2026-05-07 00:14 | 45.12689 | 14.62585 | 18937 ft | 305 kts | 330° |
| 2026-05-07 00:14 | 45.14636 | 14.61409 | 18981 ft | 304 kts | 330° |
| 2026-05-07 00:15 | 45.16585 | 14.60230 | 18979 ft | 304 kts | 330° |
| 2026-05-07 00:15 | 45.18528 | 14.59057 | 18982 ft | 304 kts | 330° |
| 2026-05-07 00:15 | 45.20497 | 14.57960 | 18977 ft | 308 kts | 341° |
| 2026-05-07 00:15 | 45.22652 | 14.57964 | 18982 ft | 318 kts | 15° |
| 2026-05-07 00:16 | 45.24571 | 14.59504 | 18985 ft | 320 kts | 47° |
| 2026-05-07 00:16 | 45.25900 | 14.62012 | 18984 ft | 318 kts | 64° |
| 2026-05-07 00:16 | 45.26883 | 14.64821 | 18981 ft | 317 kts | 70° |
| 2026-05-07 00:16 | 45.27772 | 14.67688 | 18977 ft | 318 kts | 70° |
| 2026-05-07 00:17 | 45.28395 | 14.69622 | 18981 ft | 319 kts | 69° |
| 2026-05-07 00:17 | 45.29386 | 14.72447 | 18985 ft | 320 kts | 65° |
| 2026-05-07 00:17 | 45.30452 | 14.75239 | 18984 ft | 321 kts | 68° |
| 2026-05-07 00:17 | 45.31038 | 14.78206 | 18982 ft | 307 kts | 96° |
| 2026-05-07 00:18 | 45.30944 | 14.81204 | 18986 ft | 304 kts | 101° |
| 2026-05-07 00:18 | 45.30781 | 14.84185 | 18988 ft | 303 kts | 102° |
| 2026-05-07 00:18 | 45.30600 | 14.87167 | 18989 ft | 303 kts | 102° |
| 2026-05-07 00:18 | 45.30409 | 14.90149 | 18984 ft | 303 kts | 102° |
| 2026-05-07 00:19 | 45.30220 | 14.93089 | 18985 ft | 302 kts | 102° |
| 2026-05-07 00:19 | 45.30032 | 14.96061 | 18991 ft | 302 kts | 102° |
| 2026-05-07 00:19 | 45.29848 | 14.99032 | 18988 ft | 302 kts | 102° |
| 2026-05-07 00:19 | 45.29664 | 15.02002 | 18992 ft | 302 kts | 101° |
| 2026-05-07 00:20 | 45.29481 | 15.04970 | 18986 ft | 301 kts | 101° |
| 2026-05-07 00:20 | 45.29295 | 15.07931 | 18980 ft | 300 kts | 101° |
| 2026-05-07 00:20 | 45.29109 | 15.10885 | 18987 ft | 300 kts | 101° |
| 2026-05-07 00:20 | 45.28923 | 15.13839 | 18984 ft | 299 kts | 101° |
| 2026-05-07 00:21 | 45.28736 | 15.16780 | 18988 ft | 300 kts | 101° |
| 2026-05-07 00:21 | 45.28547 | 15.19727 | 18990 ft | 299 kts | 101° |
| 2026-05-07 00:21 | 45.28356 | 15.22670 | 18985 ft | 299 kts | 101° |
| 2026-05-07 00:21 | 45.28166 | 15.25609 | 18985 ft | 299 kts | 101° |
| 2026-05-07 00:22 | 45.27983 | 15.28545 | 18985 ft | 299 kts | 98° |
| 2026-05-07 00:22 | 45.28269 | 15.31483 | 18981 ft | 308 kts | 69° |
| 2026-05-07 00:22 | 45.29481 | 15.34012 | 18983 ft | 313 kts | 50° |
| 2026-05-07 00:22 | 45.30930 | 15.36327 | 18978 ft | 314 kts | 49° |
| 2026-05-07 00:23 | 45.32397 | 15.38628 | 18979 ft | 314 kts | 49° |
| 2026-05-07 00:23 | 45.33868 | 15.40929 | 18981 ft | 314 kts | 49° |
| 2026-05-07 00:23 | 45.35333 | 15.43227 | 18979 ft | 314 kts | 49° |
| 2026-05-07 00:23 | 45.36795 | 15.45533 | 18979 ft | 314 kts | 49° |
| 2026-05-07 00:24 | 45.38251 | 15.47841 | 18973 ft | 313 kts | 50° |
| 2026-05-07 00:24 | 45.39702 | 15.50157 | 18976 ft | 313 kts | 50° |
| 2026-05-07 00:24 | 45.41150 | 15.52478 | 18978 ft | 313 kts | 50° |
| 2026-05-07 00:24 | 45.42596 | 15.54795 | 18980 ft | 313 kts | 50° |
| 2026-05-07 00:25 | 45.44042 | 15.57110 | 18979 ft | 313 kts | 50° |
| 2026-05-07 00:25 | 45.45492 | 15.59427 | 18975 ft | 313 kts | 50° |
| 2026-05-07 00:25 | 45.46942 | 15.61748 | 18979 ft | 313 kts | 50° |
| 2026-05-07 00:25 | 45.48389 | 15.64063 | 18980 ft | 313 kts | 50° |
| 2026-05-07 00:26 | 45.49839 | 15.66379 | 18981 ft | 313 kts | 50° |
| 2026-05-07 00:26 | 45.51291 | 15.68698 | 18980 ft | 313 kts | 50° |
| 2026-05-07 00:26 | 45.52742 | 15.71017 | 18978 ft | 313 kts | 50° |
| 2026-05-07 00:26 | 45.54188 | 15.73336 | 18981 ft | 313 kts | 50° |
| 2026-05-07 00:27 | 45.55637 | 15.75662 | 18981 ft | 314 kts | 50° |
| 2026-05-07 00:27 | 45.57089 | 15.77992 | 18980 ft | 314 kts | 50° |
| 2026-05-07 00:27 | 45.58539 | 15.80316 | 18982 ft | 314 kts | 50° |
| 2026-05-07 00:27 | 45.59970 | 15.82616 | 18982 ft | 314 kts | 50° |
| 2026-05-07 00:28 | 45.61417 | 15.84950 | 18979 ft | 314 kts | 50° |
| 2026-05-07 00:28 | 45.62866 | 15.87289 | 18979 ft | 314 kts | 50° |
| 2026-05-07 00:28 | 45.64313 | 15.89624 | 18978 ft | 314 kts | 50° |
| 2026-05-07 00:28 | 45.65766 | 15.91963 | 18977 ft | 314 kts | 50° |
| 2026-05-07 00:29 | 45.67217 | 15.94300 | 18980 ft | 315 kts | 50° |
| 2026-05-07 00:29 | 45.68667 | 15.96643 | 18980 ft | 314 kts | 50° |
| 2026-05-07 00:30 | 45.73009 | 16.03687 | 18985 ft | 315 kts | 50° |
| 2026-05-07 00:30 | 45.74456 | 16.06039 | 18983 ft | 315 kts | 50° |
| 2026-05-07 00:30 | 45.75902 | 16.08390 | 18983 ft | 315 kts | 50° |
| 2026-05-07 00:30 | 45.77351 | 16.10749 | 18981 ft | 315 kts | 50° |
| 2026-05-07 00:31 | 45.78797 | 16.13104 | 18983 ft | 315 kts | 50° |
| 2026-05-07 00:31 | 45.80246 | 16.15464 | 18981 ft | 315 kts | 50° |
| 2026-05-07 00:31 | 45.81693 | 16.17824 | 18981 ft | 315 kts | 50° |
| 2026-05-07 00:31 | 45.83142 | 16.20190 | 18981 ft | 315 kts | 50° |
| 2026-05-07 00:32 | 45.84591 | 16.22553 | 18979 ft | 315 kts | 50° |
| 2026-05-07 00:32 | 45.85976 | 16.24981 | 18980 ft | 314 kts | 57° |
| 2026-05-07 00:32 | 45.87065 | 16.27687 | 18979 ft | 312 kts | 68° |
| 2026-05-07 00:32 | 45.87816 | 16.30590 | 18975 ft | 309 kts | 79° |
| 2026-05-07 00:33 | 45.88224 | 16.33598 | 18974 ft | 306 kts | 89° |
| 2026-05-07 00:33 | 45.88292 | 16.36622 | 18975 ft | 302 kts | 98° |
| 2026-05-07 00:33 | 45.88024 | 16.39587 | 18976 ft | 297 kts | 108° |
| 2026-05-07 00:33 | 45.87529 | 16.42458 | 18974 ft | 296 kts | 110° |
| 2026-05-07 00:34 | 45.87026 | 16.45326 | 18973 ft | 296 kts | 109° |
| 2026-05-07 00:34 | 45.86524 | 16.48193 | 18972 ft | 296 kts | 110° |
| 2026-05-07 00:34 | 45.86024 | 16.51057 | 18972 ft | 296 kts | 109° |
| 2026-05-07 00:34 | 45.85527 | 16.53920 | 18969 ft | 296 kts | 109° |
| 2026-05-07 00:35 | 45.85030 | 16.56780 | 18970 ft | 296 kts | 109° |
| 2026-05-07 00:35 | 45.84533 | 16.59641 | 18969 ft | 296 kts | 109° |
| 2026-05-07 00:35 | 45.84036 | 16.62495 | 18965 ft | 295 kts | 109° |
| 2026-05-07 00:35 | 45.83538 | 16.65350 | 18968 ft | 295 kts | 109° |
| 2026-05-07 00:36 | 45.83036 | 16.68208 | 18966 ft | 295 kts | 109° |
| 2026-05-07 00:36 | 45.82535 | 16.71060 | 18967 ft | 295 kts | 109° |
| 2026-05-07 00:36 | 45.82034 | 16.73909 | 18967 ft | 295 kts | 109° |
| 2026-05-07 00:36 | 45.81533 | 16.76755 | 18966 ft | 294 kts | 109° |
| 2026-05-07 00:37 | 45.81032 | 16.79602 | 18965 ft | 294 kts | 109° |
| 2026-05-07 00:37 | 45.80529 | 16.82440 | 18966 ft | 294 kts | 109° |
| 2026-05-07 00:37 | 45.80025 | 16.85283 | 18968 ft | 294 kts | 109° |
| 2026-05-07 00:37 | 45.79522 | 16.88115 | 18968 ft | 294 kts | 109° |
| 2026-05-07 00:38 | 45.79026 | 16.90926 | 18966 ft | 294 kts | 109° |
| 2026-05-07 00:38 | 45.78518 | 16.93798 | 18965 ft | 294 kts | 109° |
| 2026-05-07 00:38 | 45.78015 | 16.96634 | 18965 ft | 293 kts | 109° |
| 2026-05-07 00:38 | 45.77510 | 16.99466 | 18967 ft | 293 kts | 109° |
| 2026-05-07 00:39 | 45.77003 | 17.02296 | 18967 ft | 293 kts | 109° |
| 2026-05-07 00:39 | 45.76495 | 17.05126 | 18965 ft | 293 kts | 109° |
| 2026-05-07 00:39 | 45.75987 | 17.07951 | 18962 ft | 293 kts | 109° |
| 2026-05-07 00:39 | 45.75478 | 17.10777 | 18964 ft | 293 kts | 109° |
| 2026-05-07 00:40 | 45.74972 | 17.13600 | 18965 ft | 293 kts | 109° |
| 2026-05-07 00:40 | 45.74486 | 17.16393 | 18963 ft | 293 kts | 107° |
| 2026-05-07 00:40 | 45.74045 | 17.19244 | 18965 ft | 294 kts | 106° |
| 2026-05-07 00:40 | 45.73628 | 17.22106 | 18966 ft | 294 kts | 106° |
| 2026-05-07 00:41 | 45.73216 | 17.24972 | 18962 ft | 294 kts | 105° |
| 2026-05-07 00:41 | 45.72801 | 17.27834 | 18959 ft | 293 kts | 105° |
| 2026-05-07 00:41 | 45.72382 | 17.30689 | 18968 ft | 293 kts | 106° |
| 2026-05-07 00:41 | 45.71960 | 17.33542 | 18968 ft | 293 kts | 106° |
| 2026-05-07 00:42 | 45.71532 | 17.36394 | 18966 ft | 293 kts | 106° |
| 2026-05-07 00:42 | 45.71102 | 17.39239 | 18965 ft | 293 kts | 106° |
| 2026-05-07 00:42 | 45.70670 | 17.42090 | 18962 ft | 293 kts | 106° |
| 2026-05-07 00:42 | 45.70239 | 17.44938 | 18966 ft | 293 kts | 106° |
| 2026-05-07 00:43 | 45.69808 | 17.47786 | 18962 ft | 293 kts | 106° |
| 2026-05-07 00:43 | 45.69375 | 17.50633 | 18965 ft | 293 kts | 106° |
| 2026-05-07 00:43 | 45.68942 | 17.53474 | 18963 ft | 293 kts | 107° |
| 2026-05-07 00:43 | 45.68511 | 17.56320 | 18963 ft | 293 kts | 106° |
| 2026-05-07 00:44 | 45.68078 | 17.59167 | 18961 ft | 293 kts | 106° |
| 2026-05-07 00:44 | 45.67643 | 17.62010 | 18965 ft | 293 kts | 106° |
| 2026-05-07 00:44 | 45.67206 | 17.64851 | 18966 ft | 293 kts | 106° |
| 2026-05-07 00:44 | 45.66768 | 17.67691 | 18961 ft | 293 kts | 106° |
| 2026-05-07 00:45 | 45.66329 | 17.70533 | 18965 ft | 293 kts | 106° |
| 2026-05-07 00:45 | 45.65892 | 17.73374 | 18964 ft | 293 kts | 106° |
| 2026-05-07 00:45 | 45.65454 | 17.76209 | 18966 ft | 293 kts | 106° |
| 2026-05-07 00:45 | 45.65015 | 17.79049 | 18961 ft | 293 kts | 106° |
| 2026-05-07 00:46 | 45.64575 | 17.81892 | 18967 ft | 293 kts | 106° |
| 2026-05-07 00:46 | 45.64136 | 17.84730 | 18939 ft | 293 kts | 106° |
| 2026-05-07 00:46 | 45.63695 | 17.87570 | 18912 ft | 293 kts | 106° |
| 2026-05-07 00:46 | 45.63252 | 17.90408 | 18888 ft | 292 kts | 106° |
| 2026-05-07 00:47 | 45.62810 | 17.93241 | 18864 ft | 292 kts | 106° |
| 2026-05-07 00:47 | 45.62370 | 17.96073 | 18838 ft | 292 kts | 106° |
| 2026-05-07 00:47 | 45.61927 | 17.98910 | 18817 ft | 292 kts | 107° |
| 2026-05-07 00:47 | 45.61481 | 18.01736 | 18791 ft | 292 kts | 106° |
| 2026-05-07 00:48 | 45.61034 | 18.04561 | 18770 ft | 292 kts | 106° |
| 2026-05-07 00:48 | 45.60589 | 18.07389 | 18742 ft | 292 kts | 106° |
| 2026-05-07 00:48 | 45.59980 | 18.10122 | 18710 ft | 285 kts | 124° |
| 2026-05-07 00:48 | 45.58881 | 18.12445 | 18688 ft | 283 kts | 130° |
| 2026-05-07 00:49 | 45.57734 | 18.14720 | 18796 ft | 281 kts | 130° |
| 2026-05-07 00:49 | 45.56576 | 18.16998 | 18927 ft | 284 kts | 130° |
| 2026-05-07 00:49 | 45.55415 | 18.19284 | 18966 ft | 285 kts | 130° |
| 2026-05-07 00:49 | 45.54258 | 18.21570 | 18965 ft | 285 kts | 130° |
| 2026-05-07 00:50 | 45.53100 | 18.23865 | 18961 ft | 285 kts | 130° |
| 2026-05-07 00:50 | 45.51945 | 18.26153 | 18967 ft | 284 kts | 130° |
| 2026-05-07 00:50 | 45.50787 | 18.28443 | 18965 ft | 284 kts | 130° |
| 2026-05-07 00:50 | 45.49631 | 18.30729 | 18961 ft | 284 kts | 130° |
| 2026-05-07 00:51 | 45.48488 | 18.32988 | 18963 ft | 284 kts | 130° |
| 2026-05-07 00:51 | 45.47328 | 18.35274 | 18971 ft | 284 kts | 130° |
| 2026-05-07 00:51 | 45.46168 | 18.37556 | 18970 ft | 285 kts | 130° |
| 2026-05-07 00:51 | 45.45009 | 18.39839 | 18967 ft | 284 kts | 130° |
| 2026-05-07 00:52 | 45.43848 | 18.42122 | 18970 ft | 284 kts | 130° |
| 2026-05-07 00:52 | 45.42685 | 18.44404 | 18971 ft | 284 kts | 130° |
| 2026-05-07 00:52 | 45.41525 | 18.46680 | 18974 ft | 284 kts | 130° |
| 2026-05-07 00:52 | 45.40369 | 18.48969 | 18973 ft | 285 kts | 126° |
| 2026-05-07 00:53 | 45.39440 | 18.51476 | 18977 ft | 288 kts | 120° |
| 2026-05-07 00:53 | 45.38570 | 18.54043 | 18975 ft | 288 kts | 119° |
| 2026-05-07 00:53 | 45.37707 | 18.56608 | 18978 ft | 288 kts | 119° |
| 2026-05-07 00:53 | 45.36842 | 18.59181 | 18979 ft | 288 kts | 119° |
| 2026-05-07 00:54 | 45.35978 | 18.61749 | 18975 ft | 288 kts | 119° |
| 2026-05-07 00:54 | 45.35114 | 18.64317 | 18977 ft | 288 kts | 119° |
| 2026-05-07 00:54 | 45.34247 | 18.66888 | 18978 ft | 288 kts | 117° |
| 2026-05-07 00:54 | 45.33791 | 18.69629 | 18982 ft | 294 kts | 88° |
| 2026-05-07 00:55 | 45.34406 | 18.72391 | 18983 ft | 299 kts | 56° |
| 2026-05-07 00:55 | 45.35815 | 18.74570 | 18980 ft | 302 kts | 39° |
| 2026-05-07 00:55 | 45.37519 | 18.76315 | 18982 ft | 302 kts | 32° |
| 2026-05-07 00:55 | 45.39309 | 18.77894 | 18979 ft | 303 kts | 30° |
| 2026-05-07 00:56 | 45.41107 | 18.79470 | 18980 ft | 303 kts | 31° |
| 2026-05-07 00:56 | 45.42873 | 18.81105 | 18982 ft | 303 kts | 36° |
| 2026-05-07 00:56 | 45.44278 | 18.83289 | 18977 ft | 300 kts | 67° |
| 2026-05-07 00:56 | 45.44686 | 18.86127 | 18980 ft | 292 kts | 101° |
| 2026-05-07 00:57 | 45.44004 | 18.88764 | 18983 ft | 283 kts | 130° |
| 2026-05-07 00:57 | 45.42696 | 18.90827 | 18982 ft | 280 kts | 141° |
| 2026-05-07 00:57 | 45.41228 | 18.92654 | 18984 ft | 280 kts | 143° |
| 2026-05-07 00:57 | 45.39758 | 18.94485 | 18983 ft | 281 kts | 141° |
| 2026-05-07 00:58 | 45.38418 | 18.96516 | 18978 ft | 286 kts | 123° |
| 2026-05-07 00:58 | 45.37880 | 18.99242 | 18979 ft | 294 kts | 90° |
| 2026-05-07 00:58 | 45.38450 | 19.02026 | 18982 ft | 299 kts | 56° |
| 2026-05-07 00:58 | 45.39973 | 19.03996 | 18979 ft | 299 kts | 22° |
| 2026-05-07 00:59 | 45.43811 | 19.03524 | 18981 ft | 283 kts | 315° |
| 2026-05-07 00:59 | 45.44914 | 19.01328 | 18982 ft | 271 kts | 282° |
| 2026-05-07 00:59 | 45.44982 | 18.98713 | 18985 ft | 265 kts | 257° |
| 2026-05-07 01:00 | 45.44646 | 18.96113 | 18979 ft | 267 kts | 257° |
| 2026-05-07 01:00 | 45.44214 | 18.93546 | 18982 ft | 267 kts | 252° |
| 2026-05-07 01:00 | 45.43935 | 18.90931 | 18975 ft | 270 kts | 270° |
| 2026-05-07 01:00 | 45.44349 | 18.88280 | 18636 ft | 281 kts | 289° |
| 2026-05-07 01:01 | 45.45097 | 18.85694 | 18242 ft | 283 kts | 287° |
| 2026-05-07 01:01 | 45.45790 | 18.83091 | 17790 ft | 286 kts | 287° |
| 2026-05-07 01:01 | 45.46477 | 18.80425 | 17350 ft | 288 kts | 286° |
| 2026-05-07 01:01 | 45.47167 | 18.77727 | 16901 ft | 291 kts | 286° |
| 2026-05-07 01:02 | 45.47869 | 18.75003 | 16466 ft | 294 kts | 287° |
| 2026-05-07 01:02 | 45.48584 | 18.72256 | 16039 ft | 297 kts | 287° |
| 2026-05-07 01:02 | 45.49309 | 18.69487 | 15614 ft | 300 kts | 287° |
| 2026-05-07 01:02 | 45.50042 | 18.66695 | 15195 ft | 302 kts | 287° |
| 2026-05-07 01:03 | 45.50779 | 18.63886 | 14780 ft | 304 kts | 287° |
| 2026-05-07 01:03 | 45.51520 | 18.61056 | 14373 ft | 305 kts | 287° |
| 2026-05-07 01:03 | 45.52265 | 18.58214 | 13974 ft | 307 kts | 287° |
| 2026-05-07 01:03 | 45.52980 | 18.55348 | 13544 ft | 306 kts | 281° |
| 2026-05-07 01:04 | 45.53151 | 18.53374 | 13240 ft | 301 kts | 265° |
| 2026-05-07 01:04 | 45.52677 | 18.50510 | 12794 ft | 297 kts | 242° |
| 2026-05-07 01:04 | 45.51426 | 18.48163 | 12351 ft | 295 kts | 223° |
| 2026-05-07 01:04 | 45.49909 | 18.46203 | 11917 ft | 295 kts | 221° |
| 2026-05-07 01:05 | 45.48367 | 18.44321 | 11421 ft | 297 kts | 221° |
| 2026-05-07 01:05 | 45.46990 | 18.42067 | 10868 ft | 301 kts | 239° |
| 2026-05-07 01:05 | 45.46323 | 18.39277 | 10340 ft | 306 kts | 262° |
| 2026-05-07 01:05 | 45.46503 | 18.36245 | 9814 ft | 313 kts | 285° |
| 2026-05-07 01:06 | 45.47543 | 18.33500 | 9231 ft | 321 kts | 308° |
| 2026-05-07 01:06 | 45.49302 | 18.31524 | 8662 ft | 328 kts | 332° |
| 2026-05-07 01:06 | 45.51524 | 18.30724 | 8096 ft | 334 kts | 356° |
| 2026-05-07 01:06 | 45.53802 | 18.31306 | 7547 ft | 337 kts | 22° |
| 2026-05-07 01:07 | 45.55714 | 18.33212 | 6999 ft | 339 kts | 48° |
| 2026-05-07 01:07 | 45.56872 | 18.36110 | 6459 ft | 339 kts | 73° |
| 2026-05-07 01:07 | 45.57065 | 18.39422 | 5910 ft | 336 kts | 99° |
| 2026-05-07 01:07 | 45.56428 | 18.42608 | 5310 ft | 334 kts | 110° |
| 2026-05-07 01:08 | 45.55634 | 18.45719 | 4684 ft | 335 kts | 111° |
| 2026-05-07 01:08 | 45.54801 | 18.48820 | 4057 ft | 335 kts | 112° |
| 2026-05-07 01:08 | 45.53958 | 18.51914 | 3439 ft | 334 kts | 112° |
| 2026-05-07 01:08 | 45.53122 | 18.54998 | 2799 ft | 333 kts | 112° |
| 2026-05-07 01:09 | 45.52118 | 18.57961 | 2202 ft | 331 kts | 128° |
| 2026-05-07 01:09 | 45.50554 | 18.60154 | 2275 ft | 303 kts | 147° |
| 2026-05-07 01:09 | 45.48768 | 18.61445 | 2369 ft | 275 kts | 166° |
| 2026-05-07 01:09 | 45.46970 | 18.61888 | 2474 ft | 253 kts | 179° |
| 2026-05-07 01:10 | 45.45320 | 18.62422 | 2550 ft | 238 kts | 154° |
| 2026-05-07 01:10 | 45.43982 | 18.63728 | 2648 ft | 231 kts | 145° |
| 2026-05-07 01:10 | 45.42585 | 18.64765 | 2743 ft | 224 kts | 173° |
| 2026-05-07 01:10 | 45.41089 | 18.64583 | 2833 ft | 215 kts | 208° |
| 2026-05-07 01:11 | 45.39980 | 18.63256 | 2927 ft | 209 kts | 242° |
| 2026-05-07 01:11 | 45.39649 | 18.61303 | 3028 ft | 206 kts | 278° |
| 2026-05-07 01:11 | 45.40211 | 18.59456 | 3122 ft | 209 kts | 311° |
| 2026-05-07 01:11 | 45.41394 | 18.58202 | 3214 ft | 214 kts | 326° |
| 2026-05-07 01:12 | 45.42698 | 18.57155 | 3318 ft | 215 kts | 328° |
| 2026-05-07 01:12 | 45.44015 | 18.56138 | 3414 ft | 216 kts | 328° |
| 2026-05-07 01:12 | 45.45325 | 18.55144 | 3507 ft | 216 kts | 328° |
| 2026-05-07 01:12 | 45.46670 | 18.54122 | 3607 ft | 217 kts | 328° |
| 2026-05-07 01:13 | 45.47986 | 18.53124 | 3707 ft | 216 kts | 328° |
| 2026-05-07 01:13 | 45.49318 | 18.52117 | 3794 ft | 217 kts | 328° |
| 2026-05-07 01:13 | 45.50652 | 18.51109 | 3890 ft | 217 kts | 329° |
| 2026-05-07 01:13 | 45.51990 | 18.50099 | 3987 ft | 218 kts | 329° |
| 2026-05-07 01:14 | 45.53330 | 18.49087 | 4083 ft | 218 kts | 328° |
| 2026-05-07 01:14 | 45.54675 | 18.48074 | 4186 ft | 219 kts | 329° |
| 2026-05-07 01:14 | 45.56148 | 18.47509 | 4277 ft | 226 kts | 354° |
| 2026-05-07 01:14 | 45.57710 | 18.47811 | 4264 ft | 231 kts | 16° |
| 2026-05-07 01:15 | 45.59188 | 18.48740 | 4255 ft | 234 kts | 27° |
| 2026-05-07 01:15 | 45.60523 | 18.50094 | 4260 ft | 237 kts | 35° |
| 2026-05-07 01:15 | 45.61803 | 18.51572 | 4251 ft | 236 kts | 36° |
| 2026-05-07 01:15 | 45.63075 | 18.53068 | 4257 ft | 237 kts | 37° |
| 2026-05-07 01:16 | 45.64343 | 18.54568 | 4247 ft | 237 kts | 37° |
| 2026-05-07 01:16 | 45.65650 | 18.56109 | 4243 ft | 245 kts | 37° |
| 2026-05-07 01:16 | 45.66795 | 18.57891 | 4240 ft | 246 kts | 61° |
| 2026-05-07 01:16 | 45.67189 | 18.60244 | 4242 ft | 247 kts | 94° |
| 2026-05-07 01:17 | 45.66686 | 18.62544 | 4241 ft | 243 kts | 127° |
| 2026-05-07 01:17 | 45.65552 | 18.64314 | 4241 ft | 241 kts | 140° |
| 2026-05-07 01:17 | 45.64296 | 18.65905 | 4241 ft | 241 kts | 142° |
| 2026-05-07 01:17 | 45.63028 | 18.67463 | 4233 ft | 237 kts | 142° |
| 2026-05-07 01:18 | 45.61813 | 18.68949 | 4230 ft | 226 kts | 143° |
| 2026-05-07 01:18 | 45.60622 | 18.70405 | 4227 ft | 224 kts | 143° |
| 2026-05-07 01:18 | 45.59441 | 18.71851 | 4223 ft | 224 kts | 142° |
| 2026-05-07 01:18 | 45.58256 | 18.73300 | 4221 ft | 224 kts | 143° |
| 2026-05-07 01:19 | 45.57073 | 18.74745 | 4167 ft | 226 kts | 142° |
| 2026-05-07 01:19 | 45.55882 | 18.76195 | 3897 ft | 224 kts | 142° |
| 2026-05-07 01:19 | 45.54697 | 18.77636 | 3622 ft | 224 kts | 142° |
| 2026-05-07 01:19 | 45.53509 | 18.79079 | 3364 ft | 226 kts | 142° |
| 2026-05-07 01:20 | 45.52306 | 18.80534 | 3082 ft | 227 kts | 142° |
| 2026-05-07 01:20 | 45.51110 | 18.81977 | 2804 ft | 223 kts | 143° |
| 2026-05-07 01:20 | 45.49937 | 18.83397 | 2527 ft | 220 kts | 142° |
| 2026-05-07 01:20 | 45.48776 | 18.84803 | 2248 ft | 218 kts | 143° |
| 2026-05-07 01:21 | 45.47659 | 18.86256 | 1980 ft | 218 kts | 136° |
| 2026-05-07 01:21 | 45.46642 | 18.87854 | 1708 ft | 216 kts | 134° |
| 2026-05-07 01:21 | 45.45673 | 18.89436 | 1425 ft | 208 kts | 133° |
| 2026-05-07 01:21 | 45.44736 | 18.90955 | 1149 ft | 200 kts | 133° |
| 2026-05-07 01:22 | 45.43828 | 18.92361 | 1218 ft | 190 kts | 136° |
| 2026-05-07 01:22 | 45.42913 | 18.93737 | 1361 ft | 192 kts | 151° |
| 2026-05-07 01:22 | 45.41694 | 18.93919 | 1446 ft | 178 kts | 212° |
| 2026-05-07 01:22 | 45.40998 | 18.92606 | 1594 ft | 173 kts | 266° |
| 2026-05-07 01:23 | 45.41430 | 18.91083 | 1461 ft | 177 kts | 321° |
| 2026-05-07 01:23 | 45.42465 | 18.90124 | 1381 ft | 178 kts | 320° |
| 2026-05-07 01:23 | 45.43301 | 18.88939 | 1365 ft | 161 kts | 308° |
| 2026-05-07 01:23 | 45.43974 | 18.87721 | 1142 ft | 149 kts | 303° |
| 2026-05-07 01:24 | 45.44543 | 18.86545 | 916 ft | 140 kts | 303° |
| 2026-05-07 01:24 | 45.44998 | 18.85357 | 675 ft | 134 kts | 291° |
| 2026-05-07 01:24 | 45.45391 | 18.84167 | 472 ft | 131 kts | 292° |
| 2026-05-07 01:24 | 45.45726 | 18.83019 | 367 ft | 120 kts | 287° |
| 2026-05-07 01:25 | 45.46007 | 18.81950 | 298 ft | 110 kts | 290° |
| 2026-05-07 01:25 | 45.46213 | 18.81160 | 301 ft | 64 kts | 291° |
| 2026-05-07 01:25 | 45.46331 | 18.80797 | 300 ft | 26 kts | 330° |
| 2026-05-07 01:25 | 45.46477 | 18.80828 | 300 ft | 20 kts | 18° |
| 2026-05-07 01:26 | 45.46512 | 18.80847 | 300 ft | 0 kts | 21° |